Lake George, Michigan
Current Conditions -  °F | °C
As of 11:18 AM on Saturday 25 Oct 2014 (Local Time) from KMOP Reporting Station
Clear Clear  
Wind Chill: 61°   Ceiling: Unl
Heat Index: 61°   Visibility: 10mi
Dew Point: 50°   Wind: 12mph
Humidity: 68%   Direction: 260°W
Pressure: 29.77"   Gusts: 22mph
Location:  43.96°N, 84.95°W
Report Text: KMOP 251518Z AUTO 26010G19KT 10SM CLR 16/10 A2977 RMK AO2 T01600100
Loading
Personal Weather Stations






























Interactive Weather Map
Tropical Storm Tracking
New forecast layout! Learn more

10-Day Weather Forecast

Advertisements
Track Severe Weather on mobile